Time;durP1;ratioP1;P1;durP2;ratioP2;P2;SDS_P1;SDS_P2;PMS_P1;PMS_P2;Temp;Humidity;BMP_temperature;BMP_pressure;BME280_temperature;BME280_humidity;BME280_pressure;Samples;Min_cycle;Max_cycle;Signal;HPM_P1;HPM_P2
2022/08/02 00:01:24;;;;;;;4.38;3.00;;;20.40;1.00;;;;;;5116414;28;20695;-73
2022/08/02 00:03:50;;;;;;;3.83;3.10;;;20.40;1.00;;;;;;5116171;28;20182;-72
2022/08/02 00:06:16;;;;;;;4.63;3.00;;;20.40;1.00;;;;;;5097900;28;20261;-72
2022/08/02 00:08:41;;;;;;;6.07;3.00;;;20.40;1.00;;;;;;5116016;28;20503;-72
2022/08/02 00:11:07;;;;;;;4.63;2.97;;;20.40;1.00;;;;;;5115944;28;20251;-72
2022/08/02 00:13:32;;;;;;;4.28;3.05;;;20.30;1.00;;;;;;5097382;28;20548;-72
2022/08/02 00:15:58;;;;;;;3.78;3.20;;;20.30;1.00;;;;;;5115898;28;20599;-72
2022/08/02 00:18:24;;;;;;;4.47;3.28;;;20.30;1.00;;;;;;5115855;28;20213;-72
2022/08/02 00:20:49;;;;;;;3.20;2.90;;;20.30;1.00;;;;;;5115870;28;20695;-72
2022/08/02 00:23:15;;;;;;;3.30;3.00;;;20.20;1.00;;;;;;5115872;28;20653;-72
2022/08/02 00:25:41;;;;;;;6.10;3.35;;;20.20;1.00;;;;;;5097363;28;20175;-72
2022/08/02 00:28:06;;;;;;;4.57;3.00;;;20.20;1.00;;;;;;5115205;28;20167;-72
2022/08/02 00:30:32;;;;;;;5.55;3.25;;;20.20;1.00;;;;;;5115742;28;20184;-71
2022/08/02 00:32:58;;;;;;;3.20;2.90;;;20.20;1.00;;;;;;5115515;28;20171;-72
2022/08/02 00:35:23;;;;;;;5.47;3.75;;;20.10;1.00;;;;;;5097458;28;20250;-72
2022/08/02 00:37:49;;;;;;;6.93;3.25;;;20.10;1.00;;;;;;5115451;28;20229;-72
2022/08/02 00:40:19;;;;;;;4.22;3.17;;;20.10;1.00;;;;;;5115074;28;20202;-72
2022/08/02 00:42:45;;;;;;;3.90;2.83;;;20.10;1.00;;;;;;5115181;28;20266;-73
2022/08/02 00:45:11;;;;;;;3.60;3.25;;;20.10;1.00;;;;;;5115305;28;20250;-73
2022/08/02 00:47:36;;;;;;;3.95;3.10;;;20.00;1.00;;;;;;5115469;28;20179;-73
2022/08/02 00:50:03;;;;;;;3.67;3.30;;;20.10;1.00;;;;;;5115389;28;20679;-71
2022/08/02 00:52:28;;;;;;;5.18;3.97;;;20.10;1.00;;;;;;5115164;28;20695;-71
2022/08/02 00:54:54;;;;;;;5.72;3.28;;;20.10;1.00;;;;;;5115213;28;20206;-71
2022/08/02 00:57:20;;;;;;;4.78;3.50;;;20.10;1.00;;;;;;5114592;28;20171;-71
2022/08/02 00:59:45;;;;;;;6.90;3.30;;;20.10;1.00;;;;;;5115180;28;20214;-71
2022/08/02 01:02:11;;;;;;;4.10;3.70;;;20.10;1.00;;;;;;5115198;28;20203;-72
2022/08/02 01:04:36;;;;;;;7.88;3.70;;;20.10;1.00;;;;;;5096661;28;20690;-71
2022/08/02 01:07:04;;;;;;;4.05;3.72;;;20.10;1.00;;;;;;5114875;28;20171;-71
2022/08/02 01:09:29;;;;;;;4.10;3.70;;;20.10;1.00;;;;;;5114586;28;20163;-72
2022/08/02 01:11:55;;;;;;;4.60;3.47;;;20.10;1.00;;;;;;5114186;28;20666;-72
2022/08/02 01:14:23;;;;;;;4.80;3.65;;;20.10;1.00;;;;;;5096569;28;20220;-72
2022/08/02 01:17:09;;;;;;;7.38;3.78;;;20.10;1.00;;;;;;5114490;28;20653;-72
2022/08/02 01:19:47;;;;;;;4.50;3.50;;;20.20;1.00;;;;;;5114644;28;20305;-72
2022/08/02 01:22:29;;;;;;;5.32;3.67;;;20.20;1.00;;;;;;5114589;28;20163;-71
2022/08/02 01:25:17;;;;;;;6.00;3.80;;;20.20;1.00;;;;;;5114677;28;20163;-72
2022/08/02 01:28:04;;;;;;;4.03;3.67;;;20.30;1.00;;;;;;5114381;28;20171;-72
2022/08/02 01:30:31;;;;;;;4.03;3.40;;;20.30;1.00;;;;;;5114583;28;20206;-72
2022/08/02 01:33:00;;;;;;;6.03;3.60;;;20.30;1.00;;;;;;5114455;28;20174;-72
2022/08/02 01:35:55;;;;;;;3.60;3.30;;;20.40;1.00;;;;;;5096128;28;20170;-72
2022/08/02 01:38:43;;;;;;;4.78;3.58;;;20.40;1.00;;;;;;5031735;28;20720;-72
2022/08/02 01:41:14;;;;;;;4.30;3.50;;;20.40;1.00;;;;;;5031453;28;20217;-72
2022/08/02 01:43:42;;;;;;;3.63;3.33;;;20.40;1.00;;;;;;5031886;28;20182;-72
2022/08/02 01:46:11;;;;;;;3.67;3.40;;;20.40;1.00;;;;;;5031636;28;20235;-72
2022/08/02 01:48:39;;;;;;;6.97;3.25;;;20.50;1.00;;;;;;5031656;28;20672;-72
2022/08/02 01:51:09;;;;;;;3.95;3.63;;;20.40;1.00;;;;;;5015129;28;20180;-72
2022/08/02 01:53:36;;;;;;;6.00;3.97;;;20.40;1.00;;;;;;5030766;28;20185;-72
2022/08/02 01:56:04;;;;;;;4.10;3.47;;;20.40;1.00;;;;;;5031033;28;20268;-71
2022/08/02 01:58:33;;;;;;;7.93;4.35;;;20.40;1.00;;;;;;5031090;28;20205;-72
2022/08/02 02:01:00;;;;;;;4.13;3.67;;;20.40;1.00;;;;;;5031419;28;20212;-72
2022/08/02 02:03:27;;;;;;;3.72;3.42;;;20.40;1.00;;;;;;5031646;28;20193;-72
2022/08/02 02:05:56;;;;;;;4.35;3.33;;;20.40;1.00;;;;;;5031356;28;20257;-72
2022/08/02 02:08:28;;;;;;;5.90;3.67;;;20.50;1.00;;;;;;5031495;28;20565;-72
2022/08/02 02:10:56;;;;;;;5.90;3.80;;;20.50;1.00;;;;;;5030676;28;20225;-72
2022/08/02 02:13:23;;;;;;;5.20;3.60;;;20.50;1.00;;;;;;5031404;28;20173;-72
2022/08/02 02:15:51;;;;;;;7.28;3.72;;;20.60;1.00;;;;;;5071531;28;20548;-72
2022/08/02 02:18:23;;;;;;;4.05;3.38;;;20.50;1.00;;;;;;5073280;28;20204;-72
2022/08/02 02:20:50;;;;;;;5.22;3.53;;;20.50;1.00;;;;;;5073302;28;20214;-72
2022/08/02 02:23:16;;;;;;;5.57;3.50;;;20.50;1.00;;;;;;5073199;28;20647;-72
2022/08/02 02:25:43;;;;;;;4.93;3.72;;;20.50;1.00;;;;;;5072722;28;20187;-72
2022/08/02 02:28:11;;;;;;;5.32;4.00;;;20.50;1.00;;;;;;5073069;28;20169;-72
2022/08/02 02:30:40;;;;;;;6.45;3.53;;;20.40;1.00;;;;;;5073015;28;20191;-72
2022/08/02 02:33:08;;;;;;;3.90;3.60;;;20.50;1.00;;;;;;5072967;28;20222;-72
2022/08/02 02:35:35;;;;;;;4.25;3.60;;;20.40;1.00;;;;;;5071858;28;20632;-72
2022/08/02 02:38:03;;;;;;;4.70;3.50;;;20.30;1.00;;;;;;5073081;28;20279;-72
2022/08/02 02:40:31;;;;;;;4.30;3.60;;;20.30;1.00;;;;;;5072427;28;20169;-72
2022/08/02 02:42:59;;;;;;;3.97;3.50;;;20.30;1.00;;;;;;5073015;28;20187;-72
2022/08/02 02:45:26;;;;;;;4.40;3.92;;;20.20;1.00;;;;;;5073042;28;20168;-72
2022/08/02 02:47:53;;;;;;;4.18;3.78;;;20.20;1.00;;;;;;5072871;28;20172;-72
2022/08/02 02:50:20;;;;;;;5.88;3.88;;;20.10;1.00;;;;;;5072696;28;20254;-72
2022/08/02 02:52:47;;;;;;;6.22;3.88;;;20.00;1.00;;;;;;5072609;28;20272;-72
2022/08/02 02:55:13;;;;;;;4.28;3.88;;;20.00;1.00;;;;;;5072881;28;20267;-72
2022/08/02 02:57:40;;;;;;;4.90;3.85;;;20.00;1.00;;;;;;5071465;28;20255;-72
2022/08/02 03:00:09;;;;;;;5.78;3.97;;;19.90;1.00;;;;;;5072821;28;20172;-72
2022/08/02 03:02:37;;;;;;;4.70;3.70;;;19.90;1.00;;;;;;5072811;28;20176;-72
2022/08/02 03:05:04;;;;;;;5.55;3.97;;;19.90;1.00;;;;;;5075902;28;20173;-73
2022/08/02 03:07:32;;;;;;;4.65;4.25;;;19.90;1.00;;;;;;5076271;28;20192;-72
2022/08/02 03:09:58;;;;;;;4.72;4.22;;;19.90;1.00;;;;;;5089530;28;20218;-72
2022/08/02 03:12:25;;;;;;;4.63;4.22;;;19.90;1.00;;;;;;5117319;28;20561;-72
2022/08/02 03:14:51;;;;;;;4.18;3.88;;;19.80;1.00;;;;;;5116983;28;20656;-72
2022/08/02 03:17:16;;;;;;;4.05;3.75;;;19.70;1.00;;;;;;5116849;28;20250;-73
2022/08/02 03:19:43;;;;;;;4.50;4.10;;;19.70;1.00;;;;;;5116607;28;20249;-72
2022/08/02 03:22:10;;;;;;;4.55;4.20;;;19.80;1.00;;;;;;5098228;28;20251;-72
2022/08/02 03:24:36;;;;;;;4.72;4.32;;;19.80;1.00;;;;;;5116877;28;20163;-72
2022/08/02 03:27:01;;;;;;;4.40;4.20;;;19.70;1.00;;;;;;5116743;28;20171;-72
2022/08/02 03:29:27;;;;;;;4.50;4.20;;;19.70;1.00;;;;;;5116874;28;20189;-73
2022/08/02 03:31:53;;;;;;;4.85;4.40;;;19.70;1.00;;;;;;5116469;28;20569;-72
2022/08/02 03:34:20;;;;;;;5.13;4.60;;;19.70;1.00;;;;;;5116617;28;20657;-72
2022/08/02 03:36:50;;;;;;;5.30;4.88;;;19.70;1.00;;;;;;5116227;28;20178;-72
2022/08/02 03:39:18;;;;;;;5.53;5.03;;;19.60;11.90;;;;;;5116542;28;20202;-72
2022/08/02 03:41:45;;;;;;;4.85;4.53;;;19.60;15.20;;;;;;5097934;28;20171;-72
2022/08/02 03:44:12;;;;;;;5.15;4.75;;;19.60;17.00;;;;;;5116455;28;20173;-72
2022/08/02 03:46:39;;;;;;;5.65;5.00;;;19.60;19.60;;;;;;5116048;28;20159;-72
2022/08/02 03:49:07;;;;;;;5.38;4.85;;;19.60;22.90;;;;;;5116574;28;20266;-72
2022/08/02 03:51:34;;;;;;;8.32;5.40;;;19.60;23.70;;;;;;5115683;28;20172;-72
2022/08/02 03:54:00;;;;;;;5.75;4.72;;;19.70;23.60;;;;;;5115820;28;20178;-72
2022/08/02 03:56:27;;;;;;;7.78;5.60;;;19.60;23.10;;;;;;5098056;28;20561;-72
2022/08/02 03:59:10;;;;;;;5.15;4.75;;;19.60;23.60;;;;;;5116287;28;20210;-72
2022/08/02 04:01:37;;;;;;;6.15;5.32;;;19.70;23.30;;;;;;5115743;28;20163;-72
2022/08/02 04:04:03;;;;;;;6.18;5.68;;;19.60;28.50;;;;;;5115537;28;20167;-72
2022/08/02 04:06:28;;;;;;;6.38;5.95;;;19.60;33.20;;;;;;5115401;28;20194;-72
2022/08/02 04:08:54;;;;;;;8.82;5.85;;;19.50;42.10;;;;;;5096966;28;20602;-72
2022/08/02 04:11:31;;;;;;;6.43;5.82;;;19.40;41.90;;;;;;5115478;28;20256;-72
2022/08/02 04:14:03;;;;;;;6.93;6.07;;;19.40;47.60;;;;;;5115957;28;20174;-72
2022/08/02 04:16:33;;;;;;;7.30;6.20;;;19.40;50.70;;;;;;5114760;28;20171;-72
2022/08/02 04:19:04;;;;;;;6.80;6.20;;;19.50;48.40;;;;;;5115394;28;20560;-72
2022/08/02 04:21:35;;;;;;;8.52;6.20;;;19.50;51.00;;;;;;5114998;28;20902;-73
2022/08/02 04:24:04;;;;;;;6.65;5.53;;;19.60;50.10;;;;;;5115312;28;20194;-72
2022/08/02 04:26:32;;;;;;;8.05;6.03;;;19.60;50.60;;;;;;5115619;28;20189;-73
2022/08/02 04:28:59;;;;;;;7.63;6.40;;;19.50;53.20;;;;;;5115619;28;20258;-73
2022/08/02 04:31:25;;;;;;;9.85;6.65;;;19.60;52.80;;;;;;5115137;28;20174;-72
2022/08/02 04:33:51;;;;;;;8.27;6.20;;;19.50;55.10;;;;;;5114994;28;20179;-72
2022/08/02 04:36:17;;;;;;;8.80;6.07;;;19.60;56.90;;;;;;5114640;28;20514;-72
2022/08/02 04:38:42;;;;;;;11.15;6.22;;;19.90;49.10;;;;;;5115016;28;20235;-72
2022/08/02 04:41:08;;;;;;;9.82;6.57;;;20.00;38.20;;;;;;5115336;28;20170;-72
2022/08/02 04:43:34;;;;;;;7.93;6.15;;;20.10;32.00;;;;;;5115405;28;20174;-72
2022/08/02 04:46:01;;;;;;;11.98;6.50;;;20.10;28.30;;;;;;5096482;28;20167;-72
2022/08/02 04:48:28;;;;;;;7.40;5.72;;;20.10;29.10;;;;;;5114701;28;20163;-72
2022/08/02 04:50:54;;;;;;;6.90;5.65;;;20.00;29.30;;;;;;5113748;28;20167;-72
2022/08/02 04:53:19;;;;;;;8.80;6.25;;;20.10;35.90;;;;;;5114620;28;20163;-72
2022/08/02 04:55:45;;;;;;;8.55;6.60;;;20.10;32.10;;;;;;5096873;28;20186;-72
2022/08/02 04:58:12;;;;;;;10.40;6.05;;;19.90;33.50;;;;;;5114821;28;20677;-71
2022/08/02 05:00:38;;;;;;;10.23;6.00;;;20.10;39.40;;;;;;5114500;28;20694;-71
2022/08/02 05:03:03;;;;;;;10.70;6.18;;;20.40;20.50;;;;;;5114474;28;20167;-72
2022/08/02 05:05:29;;;;;;;11.52;6.82;;;20.40;19.40;;;;;;5114387;28;20252;-72
2022/08/02 05:07:55;;;;;;;8.65;5.97;;;20.40;16.00;;;;;;5114452;28;20523;-72
2022/08/02 05:10:21;;;;;;;8.82;6.10;;;20.30;19.70;;;;;;5114110;28;20713;-72
2022/08/02 05:12:47;;;;;;;7.50;6.40;;;20.30;22.00;;;;;;5114740;28;20698;-72
2022/08/02 05:15:15;;;;;;;10.57;6.75;;;20.40;18.40;;;;;;5114318;28;20203;-72
2022/08/02 05:17:41;;;;;;;7.18;6.38;;;20.70;17.50;;;;;;5113864;28;20167;-72
2022/08/02 05:20:07;;;;;;;16.85;6.68;;;21.40;1.00;;;;;;5113695;28;20171;-73
2022/08/02 05:22:33;;;;;;;11.13;6.88;;;22.30;1.00;;;;;;5096024;28;20626;-74
2022/08/02 05:24:58;;;;;;;10.13;6.70;;;23.60;1.00;;;;;;5114004;28;20178;-73
2022/08/02 05:27:24;;;;;;;10.15;6.90;;;24.60;99.90;;;;;;5113090;28;20252;-74
2022/08/02 05:29:53;;;;;;;8.57;6.88;;;24.70;99.90;;;;;;5114347;28;20159;-74
2022/08/02 05:32:19;;;;;;;9.15;7.20;;;24.90;99.90;;;;;;5113445;28;20179;-73
2022/08/02 05:34:45;;;;;;;9.98;7.70;;;24.90;54.00;;;;;;5113465;28;20187;-73
2022/08/02 05:37:11;;;;;;;8.52;6.72;;;24.80;1.00;;;;;;5113117;28;20178;-73
2022/08/02 05:39:36;;;;;;;8.98;6.78;;;24.80;99.90;;;;;;5113531;28;20750;-74
2022/08/02 05:42:02;;;;;;;8.20;6.78;;;25.00;1.00;;;;;;5113956;28;20155;-75
2022/08/02 05:44:27;;;;;;;9.80;7.25;;;25.60;1.00;;;;;;5113674;28;20255;-75
2022/08/02 05:46:53;;;;;;;7.15;6.40;;;26.40;1.00;;;;;;5112785;28;20213;-76
2022/08/02 05:49:19;;;;;;;8.00;7.25;;;26.40;1.00;;;;;;5113687;28;20215;-76
2022/08/02 05:52:09;;;;;;;10.32;7.10;;;26.60;99.90;;;;;;5113407;28;20171;-76
2022/08/02 05:54:38;;;;;;;8.00;7.10;;;25.90;1.00;;;;;;5112555;28;20634;-76
2022/08/02 05:57:04;;;;;;;11.45;7.43;;;26.40;45.80;;;;;;5113603;28;20167;-77
2022/08/02 05:59:45;;;;;;;8.23;7.43;;;26.60;99.90;;;;;;5113147;28;20271;-78
2022/08/02 06:02:45;;;;;;;7.75;7.05;;;27.30;99.90;;;;;;5094375;28;20170;-80
2022/08/02 06:05:34;;;;;;;9.25;7.30;;;28.10;99.90;;;;;;5113260;28;20163;-82
2022/08/02 06:08:03;;;;;;;8.88;6.68;;;29.20;1.00;;;;;;5113233;28;20178;-83
2022/08/02 06:10:30;;;;;;;7.13;6.50;;;30.00;1.00;;;;;;5112729;28;20349;-81
2022/08/02 06:13:09;;;;;;;10.00;6.25;;;31.10;99.90;;;;;;5113019;28;20155;-80
2022/08/02 06:15:37;;;;;;;7.07;6.32;;;30.80;99.90;;;;;;5112881;28;20174;-79
2022/08/02 06:18:03;;;;;;;6.93;6.20;;;31.10;99.90;;;;;;5112256;28;20223;-79
2022/08/02 06:20:36;;;;;;;7.22;5.90;;;31.40;99.90;;;;;;5113342;28;20179;-79
2022/08/02 06:23:07;;;;;;;5.97;5.43;;;31.50;99.90;;;;;;5112608;28;20159;-78
2022/08/02 06:25:35;;;;;;;6.88;5.45;;;32.20;99.90;;;;;;5112884;28;20171;-78
2022/08/02 06:28:03;;;;;;;6.65;5.10;;;31.90;99.90;;;;;;5094910;28;20532;-79
2022/08/02 06:30:30;;;;;;;6.95;5.78;;;32.80;99.90;;;;;;5112207;28;20175;-78
2022/08/02 06:32:56;;;;;;;5.60;4.90;;;33.30;99.90;;;;;;5112843;28;20178;-78
2022/08/02 06:35:28;;;;;;;6.60;5.10;;;33.90;99.90;;;;;;5112572;28;20194;-77
2022/08/02 06:37:59;;;;;;;6.28;4.90;;;34.20;99.90;;;;;;5094256;28;20545;-78
2022/08/02 06:40:40;;;;;;;5.45;4.18;;;34.40;99.90;;;;;;5098591;28;20244;-78
2022/08/02 06:43:25;;;;;;;5.47;4.25;;;33.60;99.90;;;;;;5117411;28;20163;-78
2022/08/02 06:45:51;;;;;;;7.45;4.20;;;33.30;99.90;;;;;;5098111;28;20217;-78
2022/08/02 06:48:17;;;;;;;5.95;4.05;;;33.00;99.90;;;;;;5117203;28;20510;-77
2022/08/02 06:50:43;;;;;;;4.82;4.32;;;33.20;99.90;;;;;;5117321;28;20171;-77
2022/08/02 06:53:09;;;;;;;4.78;3.35;;;34.10;99.90;;;;;;5117009;28;20568;-78
2022/08/02 06:55:35;;;;;;;3.72;3.33;;;34.70;99.90;;;;;;5116080;28;20194;-77
2022/08/02 06:58:02;;;;;;;3.10;2.90;;;34.50;99.90;;;;;;5116627;28;20649;-80
2022/08/02 07:00:27;;;;;;;3.58;3.28;;;34.60;99.80;;;;;;5116373;28;20163;-80
2022/08/02 07:02:53;;;;;;;4.40;3.38;;;33.00;99.40;;;;;;5116706;28;20175;-80
2022/08/02 07:05:19;;;;;;;3.33;2.90;;;33.30;99.90;;;;;;5116624;28;20622;-80
2022/08/02 07:07:44;;;;;;;3.35;2.75;;;33.30;99.90;;;;;;5116277;28;20478;-80
2022/08/02 07:10:11;;;;;;;4.22;3.05;;;33.40;99.90;;;;;;5116151;28;20275;-80
2022/08/02 07:12:37;;;;;;;5.13;3.10;;;32.80;99.90;;;;;;5116385;28;20167;-79
2022/08/02 07:15:05;;;;;;;4.72;2.80;;;31.90;99.90;;;;;;5116530;28;20205;-77
2022/08/02 07:17:31;;;;;;;2.88;2.50;;;32.20;99.90;;;;;;5098022;28;20179;-78
2022/08/02 07:19:57;;;;;;;3.17;2.85;;;31.80;99.90;;;;;;5116510;28;20199;-78
2022/08/02 07:22:25;;;;;;;4.95;3.00;;;31.90;99.90;;;;;;5116283;28;20653;-79
2022/08/02 07:24:52;;;;;;;2.72;2.47;;;31.30;99.90;;;;;;5116209;28;20209;-79
2022/08/02 07:27:19;;;;;;;3.08;2.75;;;30.80;99.90;;;;;;5098277;28;20171;-79
2022/08/02 07:29:44;;;;;;;11.25;3.58;;;31.60;99.90;;;;;;5116216;28;20212;-78
2022/08/02 07:32:10;;;;;;;11.98;3.22;;;31.60;99.90;;;;;;5115721;28;20175;-78
2022/08/02 07:34:35;;;;;;;2.67;2.40;;;32.40;99.90;;;;;;5097865;28;20225;-76
2022/08/02 07:37:01;;;;;;;4.97;2.28;;;33.10;99.90;;;;;;5116238;28;20626;-75
2022/08/02 07:39:27;;;;;;;2.55;2.30;;;33.30;99.90;;;;;;5116165;28;20199;-75
2022/08/02 07:41:53;;;;;;;2.50;2.03;;;33.70;99.90;;;;;;5115931;28;20194;-75
2022/08/02 07:44:18;;;;;;;10.20;2.88;;;33.40;99.90;;;;;;5115563;28;20175;-76
2022/08/02 07:46:45;;;;;;;8.15;2.58;;;33.50;96.90;;;;;;5115610;28;20182;-76
2022/08/02 07:49:12;;;;;;;6.93;2.55;;;32.40;99.90;;;;;;5116320;28;20167;-75
2022/08/02 07:51:38;;;;;;;2.90;2.47;;;31.60;99.90;;;;;;5114252;28;20626;-75
2022/08/02 07:54:04;;;;;;;2.38;2.20;;;31.40;99.90;;;;;;5115567;28;20172;-74
2022/08/02 07:56:30;;;;;;;5.70;2.55;;;31.80;99.90;;;;;;5115553;28;20456;-75
2022/08/02 07:58:55;;;;;;;4.53;3.63;;;32.70;99.90;;;;;;5115429;28;20249;-75
2022/08/02 08:01:21;;;;;;;2.22;2.05;;;33.90;99.90;;;;;;5115504;28;20228;-75
2022/08/02 08:03:46;;;;;;;3.03;2.33;;;33.60;95.30;;;;;;5115344;28;20163;-75
2022/08/02 08:06:13;;;;;;;3.58;2.08;;;33.90;92.50;;;;;;5115595;28;20164;-75
2022/08/02 08:08:39;;;;;;;2.00;1.90;;;35.00;82.90;;;;;;5115222;28;20236;-76
2022/08/02 08:11:05;;;;;;;4.75;2.13;;;34.30;69.40;;;;;;5115069;28;20694;-74
2022/08/02 08:13:30;;;;;;;2.22;1.92;;;34.60;60.10;;;;;;5096860;28;20167;-74
2022/08/02 08:15:56;;;;;;;1.80;1.70;;;35.50;30.00;;;;;;5115313;28;20213;-74
2022/08/02 08:18:22;;;;;;;9.45;2.13;;;36.00;40.80;;;;;;5115401;28;20654;-72
2022/08/02 08:20:47;;;;;;;1.90;1.60;;;35.80;47.50;;;;;;5115042;28;20262;-75
2022/08/02 08:23:13;;;;;;;2.17;1.52;;;33.80;53.70;;;;;;5115107;28;20175;-75
2022/08/02 08:25:39;;;;;;;3.28;1.70;;;33.00;57.30;;;;;;5115207;28;20179;-73
2022/08/02 08:28:04;;;;;;;3.45;1.58;;;33.80;67.30;;;;;;5114955;28;20706;-75
2022/08/02 08:30:30;;;;;;;1.98;1.80;;;33.70;53.00;;;;;;5115246;28;20167;-75
2022/08/02 08:32:56;;;;;;;1.73;1.63;;;34.00;52.90;;;;;;5096818;28;20198;-74
2022/08/02 08:35:21;;;;;;;6.05;2.05;;;33.90;38.60;;;;;;5115327;28;20266;-73
2022/08/02 08:37:47;;;;;;;2.65;1.83;;;34.30;36.90;;;;;;5114649;28;20584;-72
2022/08/02 08:40:13;;;;;;;2.13;1.40;;;34.20;24.80;;;;;;5115196;28;20179;-72
2022/08/02 08:42:39;;;;;;;3.95;1.90;;;34.50;15.20;;;;;;5114192;28;20494;-73
2022/08/02 08:45:07;;;;;;;2.00;1.75;;;34.20;53.00;;;;;;5114924;28;20174;-73
2022/08/02 08:47:36;;;;;;;3.42;1.73;;;34.20;57.40;;;;;;5114676;28;20646;-71
2022/08/02 08:50:10;;;;;;;1.92;1.65;;;34.20;55.70;;;;;;5114251;28;20609;-72
2022/08/02 08:52:42;;;;;;;2.67;1.88;;;34.30;55.50;;;;;;5114963;28;20185;-72
2022/08/02 08:55:11;;;;;;;4.32;1.98;;;34.50;41.20;;;;;;5114179;28;20160;-72
2022/08/02 08:57:41;;;;;;;2.08;1.83;;;34.90;52.70;;;;;;5113964;28;20717;-73
2022/08/02 09:00:12;;;;;;;1.80;1.70;;;34.40;52.10;;;;;;5114347;28;20211;-73
2022/08/02 09:02:41;;;;;;;2.85;1.98;;;34.70;51.00;;;;;;5113576;28;20163;-72
2022/08/02 09:05:10;;;;;;;4.20;1.60;;;35.30;51.50;;;;;;5114489;28;20216;-74
2022/08/02 09:07:36;;;;;;;2.38;1.67;;;34.80;46.00;;;;;;5114745;28;20170;-76
2022/08/02 09:10:22;;;;;;;2.80;1.70;;;34.60;51.10;;;;;;5113363;28;20695;-76
2022/08/02 09:13:07;;;;;;;3.10;1.73;;;35.00;50.50;;;;;;5114411;28;20247;-78
2022/08/02 09:15:33;;;;;;;1.95;1.80;;;33.20;52.40;;;;;;5115397;28;20167;-77
2022/08/02 09:17:58;;;;;;;1.65;1.55;;;33.50;51.80;;;;;;5096223;28;20171;-76
2022/08/02 09:20:24;;;;;;;2.72;2.10;;;33.70;53.60;;;;;;5114003;28;20180;-75
2022/08/02 09:23:10;;;;;;;3.20;1.77;;;34.50;51.00;;;;;;5114470;28;20166;-74
2022/08/02 09:25:36;;;;;;;4.25;1.70;;;34.20;56.00;;;;;;5113562;28;20174;-75
2022/08/02 09:28:04;;;;;;;2.22;1.40;;;34.60;52.80;;;;;;5114497;28;20173;-74
2022/08/02 09:30:31;;;;;;;3.42;1.85;;;34.40;49.10;;;;;;5114071;28;20163;-76
2022/08/02 09:32:56;;;;;;;4.90;1.65;;;34.10;47.90;;;;;;5113799;28;20217;-78
2022/08/02 09:35:36;;;;;;;4.07;2.00;;;34.40;49.50;;;;;;5114079;28;20195;-77
2022/08/02 09:38:13;;;;;;;4.95;1.73;;;34.00;53.30;;;;;;5113514;28;20478;-78
2022/08/02 09:40:40;;;;;;;3.53;2.40;;;33.60;58.40;;;;;;5114109;28;20163;-76
2022/08/02 09:43:07;;;;;;;2.03;1.92;;;33.10;61.30;;;;;;5113875;28;20650;-75
2022/08/02 09:45:34;;;;;;;2.10;1.90;;;33.60;64.80;;;;;;5113892;28;20779;-76
2022/08/02 09:48:07;;;;;;;3.03;2.17;;;34.10;60.90;;;;;;5113523;28;20172;-77
2022/08/02 09:50:34;;;;;;;4.43;2.30;;;33.90;56.60;;;;;;5113640;28;20594;-76
2022/08/02 09:53:01;;;;;;;6.45;2.42;;;32.70;63.70;;;;;;5113873;28;20171;-76
2022/08/02 09:55:27;;;;;;;4.43;2.33;;;32.30;71.00;;;;;;5113347;28;20239;-77
2022/08/02 09:57:53;;;;;;;3.00;1.63;;;32.70;79.20;;;;;;5113315;28;20201;-75
2022/08/02 10:00:19;;;;;;;5.38;1.83;;;32.60;75.90;;;;;;5113228;28;20170;-77
2022/08/02 10:03:11;;;;;;;4.30;2.05;;;32.90;81.90;;;;;;5113672;28;20175;-76
2022/08/02 10:05:51;;;;;;;3.63;1.98;;;33.40;72.20;;;;;;5109641;28;20240;-77
2022/08/02 10:08:17;;;;;;;2.13;1.77;;;33.90;66.40;;;;;;5113371;28;20167;-77
2022/08/02 10:10:43;;;;;;;4.38;2.05;;;34.30;62.60;;;;;;5112530;28;20617;-75
2022/08/02 10:13:09;;;;;;;2.28;1.90;;;35.50;54.10;;;;;;5112966;28;20167;-77
2022/08/02 10:15:36;;;;;;;3.05;2.00;;;34.60;46.90;;;;;;5112921;28;20195;-77
2022/08/02 10:18:06;;;;;;;1.88;1.70;;;34.00;51.40;;;;;;5114193;28;20159;-78
2022/08/02 10:20:43;;;;;;;3.78;2.05;;;33.60;57.60;;;;;;5112870;28;20198;-78
2022/08/02 10:23:12;;;;;;;10.82;8.68;;;34.30;52.80;;;;;;5112977;28;20630;-76
2022/08/02 10:25:39;;;;;;;5.32;1.83;;;35.30;49.90;;;;;;5113112;28;20731;-77
2022/08/02 10:28:08;;;;;;;1.80;1.70;;;34.80;45.20;;;;;;5113311;28;20167;-77
2022/08/02 10:30:36;;;;;;;5.72;1.95;;;34.30;42.90;;;;;;5112838;28;20179;-77
2022/08/02 10:33:11;;;;;;;3.28;1.95;;;33.50;47.10;;;;;;5113272;28;20220;-76
2022/08/02 10:35:39;;;;;;;3.08;1.80;;;32.90;23.00;;;;;;5113450;28;20262;-77
2022/08/02 10:38:09;;;;;;;3.60;1.63;;;31.70;62.80;;;;;;5112586;28;20163;-75
2022/08/02 10:40:49;;;;;;;3.45;2.08;;;31.60;69.50;;;;;;5113231;28;20171;-78
2022/08/02 10:43:30;;;;;;;6.03;1.63;;;30.50;78.10;;;;;;5112860;28;20179;-78
2022/08/02 10:46:22;;;;;;;3.13;1.70;;;30.40;81.10;;;;;;5112148;28;20256;-77
2022/08/02 10:49:07;;;;;;;2.20;1.70;;;30.20;92.10;;;;;;5105017;28;20227;-78
2022/08/02 10:51:54;;;;;;;5.55;2.70;;;30.50;91.70;;;;;;5112387;28;20542;-77
2022/08/02 10:54:25;;;;;;;5.78;1.92;;;31.10;93.30;;;;;;5112638;28;20290;-75
2022/08/02 10:56:53;;;;;;;3.63;1.90;;;31.50;90.30;;;;;;5112807;28;20155;-75
2022/08/02 10:59:34;;;;;;;3.35;1.70;;;32.40;80.30;;;;;;5112051;28;20211;-75
2022/08/02 11:02:01;;;;;;;2.97;2.10;;;32.40;68.60;;;;;;5112234;28;20163;-78
2022/08/02 11:04:35;;;;;;;2.47;1.48;;;32.20;64.60;;;;;;5112949;28;20171;-77
2022/08/02 11:07:07;;;;;;;2.95;1.60;;;32.00;64.50;;;;;;5112212;28;20174;-75
2022/08/02 11:09:33;;;;;;;4.03;2.90;;;32.30;60.00;;;;;;5111634;28;20180;-74
2022/08/02 11:12:14;;;;;;;8.70;3.03;;;32.60;57.60;;;;;;5112414;28;20223;-74
2022/08/02 11:14:42;;;;;;;3.33;1.50;;;33.30;54.90;;;;;;5094017;28;20661;-74
2022/08/02 11:17:13;;;;;;;1.42;1.38;;;33.60;48.20;;;;;;5112491;28;20175;-76
2022/08/02 11:20:09;;;;;;;3.10;1.85;;;32.90;45.50;;;;;;5112578;28;20203;-77
2022/08/02 11:22:35;;;;;;;1.73;1.30;;;32.60;48.00;;;;;;5112115;28;20254;-77
2022/08/02 11:25:22;;;;;;;1.50;1.40;;;32.70;44.40;;;;;;5113813;28;20254;-77
2022/08/02 11:28:06;;;;;;;5.55;1.70;;;32.50;50.30;;;;;;5116434;28;20171;-76
2022/08/02 11:30:31;;;;;;;1.67;1.58;;;32.20;49.70;;;;;;5116495;28;20179;-77
2022/08/02 11:32:58;;;;;;;1.60;1.50;;;32.00;45.30;;;;;;5116385;28;20224;-75
2022/08/02 11:35:44;;;;;;;2.22;2.00;;;31.70;57.80;;;;;;5115775;28;20207;-75
2022/08/02 11:38:14;;;;;;;7.10;1.70;;;31.70;62.50;;;;;;5115665;28;20206;-77
2022/08/02 11:40:40;;;;;;;3.25;1.45;;;31.40;60.70;;;;;;5116709;28;20171;-77
2022/08/02 11:43:23;;;;;;;1.40;1.30;;;31.50;55.90;;;;;;5116269;28;20163;-76
2022/08/02 11:45:51;;;;;;;1.33;1.23;;;31.20;58.50;;;;;;5116463;28;20170;-75
2022/08/02 11:48:38;;;;;;;3.38;1.40;;;30.90;59.70;;;;;;5115696;28;20175;-74
2022/08/02 11:51:16;;;;;;;2.30;1.33;;;31.00;59.80;;;;;;5115700;28;20171;-76
2022/08/02 11:53:46;;;;;;;3.63;2.00;;;31.80;60.90;;;;;;5115503;28;20188;-77
2022/08/02 11:56:13;;;;;;;2.50;1.33;;;32.20;57.80;;;;;;5116190;28;20175;-77
2022/08/02 11:58:39;;;;;;;2.15;1.50;;;32.20;53.60;;;;;;5115743;28;20248;-74
2022/08/02 12:01:05;;;;;;;6.10;2.88;;;31.60;48.80;;;;;;5115842;28;20627;-77
2022/08/02 12:03:35;;;;;;;2.35;1.38;;;31.30;52.40;;;;;;5115417;28;20696;-78
2022/08/02 12:06:01;;;;;;;1.33;1.23;;;31.10;56.30;;;;;;5115528;28;20163;-77
2022/08/02 12:08:26;;;;;;;1.50;1.40;;;31.10;55.70;;;;;;5115637;28;20626;-77
2022/08/02 12:10:52;;;;;;;3.63;1.70;;;30.60;60.40;;;;;;5115134;28;20237;-77
2022/08/02 12:13:18;;;;;;;3.65;1.52;;;30.50;68.90;;;;;;5115950;28;20182;-78
2022/08/02 12:15:45;;;;;;;2.33;1.83;;;30.10;76.20;;;;;;5114944;28;20662;-77
2022/08/02 12:21:02;;;;;;;2.67;1.52;;;30.20;90.90;;;;;;5116043;28;20569;-77
2022/08/02 12:23:28;;;;;;;1.83;1.40;;;30.40;90.50;;;;;;5115116;28;20164;-76
2022/08/02 12:26:03;;;;;;;4.32;1.33;;;30.10;90.80;;;;;;5114882;28;20194;-76
2022/08/02 12:28:33;;;;;;;2.22;1.48;;;30.40;93.70;;;;;;5115406;28;20178;-76
2022/08/02 12:31:00;;;;;;;5.18;1.70;;;30.50;94.90;;;;;;5114984;28;20159;-76
2022/08/02 12:33:27;;;;;;;3.20;1.33;;;30.70;91.50;;;;;;5114832;28;20188;-76
2022/08/02 12:35:55;;;;;;;4.05;1.52;;;30.70;90.90;;;;;;5114650;28;20182;-77
2022/08/02 12:38:21;;;;;;;6.18;1.40;;;30.90;91.10;;;;;;5114322;28;20230;-76
2022/08/02 12:40:47;;;;;;;3.13;1.70;;;31.10;86.70;;;;;;5114752;28;20225;-76
2022/08/02 12:43:22;;;;;;;2.15;1.30;;;31.00;83.50;;;;;;5114940;28;20353;-76
2022/08/02 12:45:53;;;;;;;3.53;1.48;;;30.60;93.90;;;;;;5114665;28;20171;-76
2022/08/02 12:48:34;;;;;;;3.72;1.88;;;30.60;97.00;;;;;;5114355;28;20163;-76
2022/08/02 12:51:25;;;;;;;2.30;1.60;;;30.90;95.70;;;;;;5113929;28;20209;-76
2022/08/02 12:53:52;;;;;;;1.35;1.25;;;31.00;95.00;;;;;;5114943;28;20164;-76
2022/08/02 12:56:36;;;;;;;1.55;1.45;;;31.00;95.70;;;;;;5114720;28;20206;-77
2022/08/02 12:59:02;;;;;;;1.80;1.40;;;30.40;99.30;;;;;;5114299;28;20199;-78
2022/08/02 13:01:28;;;;;;;4.53;1.30;;;30.00;99.90;;;;;;5114414;28;20715;-77
2022/08/02 13:03:55;;;;;;;1.42;1.30;;;29.90;99.90;;;;;;5114038;28;20254;-77